sensor_id;sensor_type;location;lat;lon;timestamp;pressure;altitude;pressure_sealevel;temperature;humidity
34658;BME280;20865;43.312;27.152;2023-03-26T00:00:52;99601.27;;;19.66;44.30
34658;BME280;20865;43.312;27.152;2023-03-26T00:03:22;99596.48;;;19.64;44.33
34658;BME280;20865;43.312;27.152;2023-03-26T00:05:48;99600.05;;;19.65;44.26
34658;BME280;20865;43.312;27.152;2023-03-26T00:08:15;99602.47;;;19.62;44.40
34658;BME280;20865;43.312;27.152;2023-03-26T00:10:57;99601.11;;;19.62;44.42
34658;BME280;20865;43.312;27.152;2023-03-26T00:13:16;99601.11;;;19.62;44.29
34658;BME280;20865;43.312;27.152;2023-03-26T00:15:50;99594.84;;;19.62;44.47
34658;BME280;20865;43.312;27.152;2023-03-26T00:18:13;99602.89;;;19.69;44.42
34658;BME280;20865;43.312;27.152;2023-03-26T00:20:44;99603.52;;;19.67;44.58
34658;BME280;20865;43.312;27.152;2023-03-26T00:23:11;99607.31;;;19.70;44.86
34658;BME280;20865;43.312;27.152;2023-03-26T00:25:38;99605.72;;;19.73;44.94
34658;BME280;20865;43.312;27.152;2023-03-26T00:28:07;99598.21;;;19.77;45.21
34658;BME280;20865;43.312;27.152;2023-03-26T00:30:34;99594.05;;;19.78;45.43
34658;BME280;20865;43.312;27.152;2023-03-26T00:33:01;99607.22;;;19.83;45.35
34658;BME280;20865;43.312;27.152;2023-03-26T00:35:27;99601.31;;;19.89;45.36
34658;BME280;20865;43.312;27.152;2023-03-26T00:38:01;99595.02;;;19.94;45.16
34658;BME280;20865;43.312;27.152;2023-03-26T00:40:24;99597.98;;;19.96;45.17
34658;BME280;20865;43.312;27.152;2023-03-26T00:42:51;99593.55;;;20.01;44.89
34658;BME280;20865;43.312;27.152;2023-03-26T00:45:21;99596.27;;;20.07;44.69
34658;BME280;20865;43.312;27.152;2023-03-26T00:47:47;99600.59;;;20.09;44.60
34658;BME280;20865;43.312;27.152;2023-03-26T00:50:14;99602.06;;;20.13;44.56
34658;BME280;20865;43.312;27.152;2023-03-26T00:52:42;99604.28;;;20.19;44.26
34658;BME280;20865;43.312;27.152;2023-03-26T00:55:09;99606.01;;;20.26;44.13
34658;BME280;20865;43.312;27.152;2023-03-26T00:57:41;99610.66;;;20.35;43.74
34658;BME280;20865;43.312;27.152;2023-03-26T01:00:06;99607.59;;;20.34;43.85
34658;BME280;20865;43.312;27.152;2023-03-26T01:02:42;99610.55;;;20.37;43.77
34658;BME280;20865;43.312;27.152;2023-03-26T01:05:37;99610.06;;;20.37;43.68
34658;BME280;20865;43.312;27.152;2023-03-26T01:07:50;99601.06;;;20.37;43.63
34658;BME280;20865;43.312;27.152;2023-03-26T01:10:16;99601.31;;;20.34;43.52
34658;BME280;20865;43.312;27.152;2023-03-26T01:12:50;99608.81;;;20.36;43.37
34658;BME280;20865;43.312;27.152;2023-03-26T01:15:14;99603.28;;;20.37;43.25
34658;BME280;20865;43.312;27.152;2023-03-26T01:17:41;99604.89;;;20.40;43.11
34658;BME280;20865;43.312;27.152;2023-03-26T01:20:12;99604.89;;;20.40;43.06
34658;BME280;20865;43.312;27.152;2023-03-26T01:22:41;99606.45;;;20.42;42.85
34658;BME280;20865;43.312;27.152;2023-03-26T01:25:12;99608.20;;;20.43;42.85
34658;BME280;20865;43.312;27.152;2023-03-26T01:27:47;99615.20;;;20.46;42.89
34658;BME280;20865;43.312;27.152;2023-03-26T01:35:30;99607.92;;;20.46;42.62
34658;BME280;20865;43.312;27.152;2023-03-26T01:38:12;99611.75;;;20.50;42.54
34658;BME280;20865;43.312;27.152;2023-03-26T01:40:41;99613.63;;;20.43;42.48
34658;BME280;20865;43.312;27.152;2023-03-26T01:43:23;99612.66;;;20.33;42.68
34658;BME280;20865;43.312;27.152;2023-03-26T01:45:48;99608.06;;;20.39;42.48
34658;BME280;20865;43.312;27.152;2023-03-26T01:48:15;99610.66;;;20.35;42.58
34658;BME280;20865;43.312;27.152;2023-03-26T01:50:44;99607.20;;;20.39;42.47
34658;BME280;20865;43.312;27.152;2023-03-26T01:53:11;99601.42;;;20.43;42.45
34658;BME280;20865;43.312;27.152;2023-03-26T01:55:49;99598.72;;;20.43;42.53
34658;BME280;20865;43.312;27.152;2023-03-26T01:58:16;99613.35;;;20.46;42.36
34658;BME280;20865;43.312;27.152;2023-03-26T02:03:24;99610.39;;;20.50;42.16
34658;BME280;20865;43.312;27.152;2023-03-26T02:08:35;99622.78;;;20.54;42.26
34658;BME280;20865;43.312;27.152;2023-03-26T02:11:08;99614.36;;;20.57;42.13
34658;BME280;20865;43.312;27.152;2023-03-26T02:13:32;99607.22;;;20.56;42.11
34658;BME280;20865;43.312;27.152;2023-03-26T02:16:00;99617.07;;;20.57;42.07
34658;BME280;20865;43.312;27.152;2023-03-26T02:18:27;99619.42;;;20.56;42.01
34658;BME280;20865;43.312;27.152;2023-03-26T02:20:56;99631.14;;;20.56;41.75
34658;BME280;20865;43.312;27.152;2023-03-26T02:23:28;99633.23;;;20.53;41.69
34658;BME280;20865;43.312;27.152;2023-03-26T02:25:53;99636.34;;;20.54;41.59
34658;BME280;20865;43.312;27.152;2023-03-26T02:28:20;99627.92;;;20.57;42.51
34658;BME280;20865;43.312;27.152;2023-03-26T02:30:47;99630.39;;;20.60;43.91
34658;BME280;20865;43.312;27.152;2023-03-26T02:33:13;99629.03;;;20.60;44.70
34658;BME280;20865;43.312;27.152;2023-03-26T02:35:41;99637.42;;;20.57;44.79
34658;BME280;20865;43.312;27.152;2023-03-26T02:38:11;99638.77;;;20.57;44.95
34658;BME280;20865;43.312;27.152;2023-03-26T02:40:39;99638.77;;;20.57;45.17
34658;BME280;20865;43.312;27.152;2023-03-26T02:43:06;99643.48;;;20.55;44.99
34658;BME280;20865;43.312;27.152;2023-03-26T02:45:33;99643.59;;;20.53;45.21
34658;BME280;20865;43.312;27.152;2023-03-26T02:48:00;99652.23;;;20.53;45.21
34658;BME280;20865;43.312;27.152;2023-03-26T02:50:27;99655.94;;;20.52;45.20
34658;BME280;20865;43.312;27.152;2023-03-26T02:52:55;99657.01;;;20.49;44.89
34658;BME280;20865;43.312;27.152;2023-03-26T02:55:22;99664.03;;;20.46;44.73
34658;BME280;20865;43.312;27.152;2023-03-26T02:57:49;99665.78;;;20.47;44.54
34658;BME280;20865;43.312;27.152;2023-03-26T03:00:16;99665.53;;;20.44;44.45
34658;BME280;20865;43.312;27.152;2023-03-26T03:02:43;99674.77;;;20.42;44.28
34658;BME280;20865;43.312;27.152;2023-03-26T03:05:11;99672.94;;;20.37;44.27
34658;BME280;20865;43.312;27.152;2023-03-26T03:07:38;99675.63;;;20.31;44.39
34658;BME280;20865;43.312;27.152;2023-03-26T03:10:06;99684.77;;;20.30;44.40
34658;BME280;20865;43.312;27.152;2023-03-26T03:12:34;99679.20;;;20.32;44.27
34658;BME280;20865;43.312;27.152;2023-03-26T03:15:01;99683.39;;;20.25;44.39
34658;BME280;20865;43.312;27.152;2023-03-26T03:17:28;99692.39;;;20.14;44.76
34658;BME280;20865;43.312;27.152;2023-03-26T03:19:55;99697.21;;;20.16;44.79
34658;BME280;20865;43.312;27.152;2023-03-26T03:22:22;99710.48;;;20.08;44.91
34658;BME280;20865;43.312;27.152;2023-03-26T03:24:48;99713.82;;;20.11;44.99
34658;BME280;20865;43.312;27.152;2023-03-26T03:27:17;99717.89;;;20.11;45.32
34658;BME280;20865;43.312;27.152;2023-03-26T03:29:48;99715.67;;;20.11;45.24
34658;BME280;20865;43.312;27.152;2023-03-26T03:32:16;99717.66;;;20.09;45.43
34658;BME280;20865;43.312;27.152;2023-03-26T03:34:43;99714.95;;;20.09;45.52
34658;BME280;20865;43.312;27.152;2023-03-26T03:37:10;99713.20;;;20.08;45.62
34658;BME280;20865;43.312;27.152;2023-03-26T03:39:37;99713.95;;;20.10;45.63
34658;BME280;20865;43.312;27.152;2023-03-26T03:42:03;99712.96;;;20.11;45.61
34658;BME280;20865;43.312;27.152;2023-03-26T03:44:30;99714.22;;;20.12;45.59
34658;BME280;20865;43.312;27.152;2023-03-26T03:46:57;99708.03;;;20.10;45.64
34658;BME280;20865;43.312;27.152;2023-03-26T03:49:24;99709.66;;;20.13;45.56
34658;BME280;20865;43.312;27.152;2023-03-26T03:51:51;99707.94;;;20.12;45.73
34658;BME280;20865;43.312;27.152;2023-03-26T03:54:17;99700.77;;;20.05;46.09
34658;BME280;20865;43.312;27.152;2023-03-26T03:56:44;99698.69;;;20.09;46.08
34658;BME280;20865;43.312;27.152;2023-03-26T03:59:12;99691.75;;;20.05;46.09
34658;BME280;20865;43.312;27.152;2023-03-26T04:01:38;99687.08;;;20.07;46.18
34658;BME280;20865;43.312;27.152;2023-03-26T04:04:07;99684.99;;;20.10;46.06
34658;BME280;20865;43.312;27.152;2023-03-26T04:06:34;99700.40;;;20.10;46.03
34658;BME280;20865;43.312;27.152;2023-03-26T04:09:00;99696.94;;;20.08;46.19
34658;BME280;20865;43.312;27.152;2023-03-26T04:11:27;99699.54;;;20.09;46.24
34658;BME280;20865;43.312;27.152;2023-03-26T04:13:54;99707.67;;;20.09;46.31
34658;BME280;20865;43.312;27.152;2023-03-26T04:16:21;99712.59;;;20.10;46.26
34658;BME280;20865;43.312;27.152;2023-03-26T04:18:48;99711.11;;;20.11;46.30
34658;BME280;20865;43.312;27.152;2023-03-26T04:21:15;99717.78;;;20.13;46.29
34658;BME280;20865;43.312;27.152;2023-03-26T04:23:42;99721.09;;;20.11;46.33
34658;BME280;20865;43.312;27.152;2023-03-26T04:26:10;99712.36;;;20.13;46.25
34658;BME280;20865;43.312;27.152;2023-03-26T04:28:48;99711.36;;;20.03;46.48
34658;BME280;20865;43.312;27.152;2023-03-26T04:31:21;99706.19;;;20.05;46.64
34658;BME280;20865;43.312;27.152;2023-03-26T04:33:43;99698.88;;;19.89;46.77
34658;BME280;20865;43.312;27.152;2023-03-26T04:36:11;99696.55;;;20.01;46.63
34658;BME280;20865;43.312;27.152;2023-03-26T04:38:44;99705.81;;;19.98;46.68
34658;BME280;20865;43.312;27.152;2023-03-26T04:41:13;99700.88;;;19.98;46.65
34658;BME280;20865;43.312;27.152;2023-03-26T04:43:40;99708.63;;;19.91;46.75
34658;BME280;20865;43.312;27.152;2023-03-26T04:46:09;99705.41;;;19.97;46.74
34658;BME280;20865;43.312;27.152;2023-03-26T04:48:36;99708.88;;;19.99;46.60
34658;BME280;20865;43.312;27.152;2023-03-26T04:51:05;99716.25;;;19.97;46.59
34658;BME280;20865;43.312;27.152;2023-03-26T04:53:34;99708.39;;;19.94;46.54
34658;BME280;20865;43.312;27.152;2023-03-26T04:58:29;99709.62;;;19.96;46.67
34658;BME280;20865;43.312;27.152;2023-03-26T05:00:58;99707.27;;;19.97;46.50
34658;BME280;20865;43.312;27.152;2023-03-26T05:03:26;99703.59;;;20.15;46.45
34658;BME280;20865;43.312;27.152;2023-03-26T05:05:57;99710.66;;;20.23;45.88
34658;BME280;20865;43.312;27.152;2023-03-26T05:08:25;99705.23;;;20.23;45.56
34658;BME280;20865;43.312;27.152;2023-03-26T05:10:53;99727.16;;;20.20;45.40
34658;BME280;20865;43.312;27.152;2023-03-26T05:13:21;99724.19;;;20.17;45.43
34658;BME280;20865;43.312;27.152;2023-03-26T05:15:48;99720.98;;;20.18;45.38
34658;BME280;20865;43.312;27.152;2023-03-26T05:18:15;99730.70;;;20.15;45.30
34658;BME280;20865;43.312;27.152;2023-03-26T05:20:44;99723.08;;;20.14;45.24
34658;BME280;20865;43.312;27.152;2023-03-26T05:23:11;99728.63;;;20.13;45.29
34658;BME280;20865;43.312;27.152;2023-03-26T05:25:38;99721.57;;;20.05;45.34
34658;BME280;20865;43.312;27.152;2023-03-26T05:28:05;99713.59;;;20.09;45.29
34658;BME280;20865;43.312;27.152;2023-03-26T05:30:32;99710.51;;;20.13;45.28
34658;BME280;20865;43.312;27.152;2023-03-26T05:32:58;99716.19;;;20.16;45.34
34658;BME280;20865;43.312;27.152;2023-03-26T05:35:27;99714.09;;;20.19;45.25
34658;BME280;20865;43.312;27.152;2023-03-26T05:37:54;99710.64;;;20.29;44.99
34658;BME280;20865;43.312;27.152;2023-03-26T05:40:21;99707.42;;;20.29;44.68
34658;BME280;20865;43.312;27.152;2023-03-26T05:42:48;99713.36;;;20.23;44.17
34658;BME280;20865;43.312;27.152;2023-03-26T05:45:16;99715.22;;;20.34;43.99
34658;BME280;20865;43.312;27.152;2023-03-26T05:47:44;99720.64;;;20.45;43.95
34658;BME280;20865;43.312;27.152;2023-03-26T05:50:10;99716.69;;;20.49;43.60
34658;BME280;20865;43.312;27.152;2023-03-26T05:52:37;99721.52;;;20.57;43.61
34658;BME280;20865;43.312;27.152;2023-03-26T05:55:04;99710.20;;;20.52;43.11
34658;BME280;20865;43.312;27.152;2023-03-26T05:57:32;99707.11;;;20.62;43.26
34658;BME280;20865;43.312;27.152;2023-03-26T06:00:00;99712.77;;;20.70;43.06
34658;BME280;20865;43.312;27.152;2023-03-26T06:02:29;99717.70;;;20.82;42.78
34658;BME280;20865;43.312;27.152;2023-03-26T06:04:56;99726.55;;;21.01;41.92
34658;BME280;20865;43.312;27.152;2023-03-26T06:07:23;99740.76;;;20.93;41.48
34658;BME280;20865;43.312;27.152;2023-03-26T06:09:51;99752.99;;;20.82;41.41
34658;BME280;20865;43.312;27.152;2023-03-26T06:12:18;99752.84;;;21.00;40.99
34658;BME280;20865;43.312;27.152;2023-03-26T06:14:45;99755.19;;;20.93;41.26
34658;BME280;20865;43.312;27.152;2023-03-26T06:17:12;99754.96;;;20.85;40.98
34658;BME280;20865;43.312;27.152;2023-03-26T06:19:39;99761.86;;;20.84;41.09
34658;BME280;20865;43.312;27.152;2023-03-26T06:22:07;99766.31;;;20.79;41.39
34658;BME280;20865;43.312;27.152;2023-03-26T06:24:33;99769.61;;;20.88;41.55
34658;BME280;20865;43.312;27.152;2023-03-26T06:27:02;99769.38;;;20.97;41.13
34658;BME280;20865;43.312;27.152;2023-03-26T06:29:28;99779.23;;;20.98;40.90
34658;BME280;20865;43.312;27.152;2023-03-26T06:31:55;99780.60;;;21.04;40.80
34658;BME280;20865;43.312;27.152;2023-03-26T06:34:22;99791.70;;;21.01;40.46
34658;BME280;20865;43.312;27.152;2023-03-26T06:36:49;99786.91;;;20.93;40.79
34658;BME280;20865;43.312;27.152;2023-03-26T06:39:17;99792.45;;;20.97;40.71
34658;BME280;20865;43.312;27.152;2023-03-26T06:41:44;99800.59;;;20.91;40.69
34658;BME280;20865;43.312;27.152;2023-03-26T06:44:11;99795.91;;;20.93;40.75
34658;BME280;20865;43.312;27.152;2023-03-26T06:46:38;99802.21;;;21.00;41.02
34658;BME280;20865;43.312;27.152;2023-03-26T06:49:05;99794.30;;;20.91;40.39
34658;BME280;20865;43.312;27.152;2023-03-26T06:51:32;99800.10;;;20.69;40.67
34658;BME280;20865;43.312;27.152;2023-03-26T06:53:58;99789.85;;;20.67;41.01
34658;BME280;20865;43.312;27.152;2023-03-26T06:56:27;99792.82;;;20.59;41.17
34658;BME280;20865;43.312;27.152;2023-03-26T06:58:54;99794.05;;;20.60;41.22
34658;BME280;20865;43.312;27.152;2023-03-26T07:01:21;99802.14;;;20.49;41.46
34658;BME280;20865;43.312;27.152;2023-03-26T07:03:48;99803.91;;;20.56;41.60
34658;BME280;20865;43.312;27.152;2023-03-26T07:06:15;99808.62;;;20.54;41.72
34658;BME280;20865;43.312;27.152;2023-03-26T07:08:41;99802.64;;;20.49;41.52
34658;BME280;20865;43.312;27.152;2023-03-26T07:11:08;99809.10;;;20.59;41.19
34658;BME280;20865;43.312;27.152;2023-03-26T07:13:35;99795.67;;;20.68;41.22
34658;BME280;20865;43.312;27.152;2023-03-26T07:16:05;99805.48;;;20.47;41.23
34658;BME280;20865;43.312;27.152;2023-03-26T07:18:32;99807.36;;;20.52;41.45
34658;BME280;20865;43.312;27.152;2023-03-26T07:20:59;99801.56;;;20.57;41.23
34658;BME280;20865;43.312;27.152;2023-03-26T07:23:26;99796.39;;;20.59;41.05
34658;BME280;20865;43.312;27.152;2023-03-26T07:25:53;99792.20;;;20.55;41.16
34658;BME280;20865;43.312;27.152;2023-03-26T07:28:28;99783.33;;;20.70;41.04
34658;BME280;20865;43.312;27.152;2023-03-26T07:31:01;99779.51;;;20.73;40.83
34658;BME280;20865;43.312;27.152;2023-03-26T07:33:38;99784.55;;;20.77;40.78
34658;BME280;20865;43.312;27.152;2023-03-26T07:36:07;99778.02;;;20.74;40.96
34658;BME280;20865;43.312;27.152;2023-03-26T07:43:54;99783.70;;;20.82;40.78
34658;BME280;20865;43.312;27.152;2023-03-26T07:46:20;99785.91;;;20.77;40.18
34658;BME280;20865;43.312;27.152;2023-03-26T07:48:48;99788.38;;;20.80;40.21
34658;BME280;20865;43.312;27.152;2023-03-26T07:51:16;99787.03;;;20.86;40.20
34658;BME280;20865;43.312;27.152;2023-03-26T07:53:43;99781.47;;;20.70;39.77
34658;BME280;20865;43.312;27.152;2023-03-26T07:56:12;99788.39;;;20.86;39.80
34658;BME280;20865;43.312;27.152;2023-03-26T08:04:34;99775.19;;;20.87;38.88
34658;BME280;20865;43.312;27.152;2023-03-26T08:07:04;99777.77;;;21.00;38.80
34658;BME280;20865;43.312;27.152;2023-03-26T08:09:25;99789.25;;;21.03;38.67
34658;BME280;20865;43.312;27.152;2023-03-26T08:14:39;99779.72;;;21.14;38.85
34658;BME280;20865;43.312;27.152;2023-03-26T08:17:18;99779.73;;;20.98;38.13
34658;BME280;20865;43.312;27.152;2023-03-26T08:19:54;99778.97;;;21.24;38.31
34658;BME280;20865;43.312;27.152;2023-03-26T08:22:30;99767.58;;;21.30;38.06
34658;BME280;20865;43.312;27.152;2023-03-26T08:27:34;99767.06;;;21.47;37.97
34658;BME280;20865;43.312;27.152;2023-03-26T08:30:02;99781.14;;;21.52;37.36
34658;BME280;20865;43.312;27.152;2023-03-26T08:32:28;99781.55;;;21.42;37.85
34658;BME280;20865;43.312;27.152;2023-03-26T08:34:54;99775.15;;;21.15;37.16
34658;BME280;20865;43.312;27.152;2023-03-26T08:37:22;99788.61;;;21.05;37.94
34658;BME280;20865;43.312;27.152;2023-03-26T08:39:49;99792.69;;;21.11;37.88
34658;BME280;20865;43.312;27.152;2023-03-26T08:45:14;99782.19;;;21.34;37.64
34658;BME280;20865;43.312;27.152;2023-03-26T08:50:16;99787.44;;;21.58;36.85
34658;BME280;20865;43.312;27.152;2023-03-26T09:06:09;99788.57;;;22.03;36.39
34658;BME280;20865;43.312;27.152;2023-03-26T09:16:44;99800.73;;;22.62;34.81
34658;BME280;20865;43.312;27.152;2023-03-26T09:19:16;99800.34;;;22.97;35.16
34658;BME280;20865;43.312;27.152;2023-03-26T09:27:06;99796.41;;;22.96;33.83
34658;BME280;20865;43.312;27.152;2023-03-26T09:37:27;99807.58;;;21.82;34.07
34658;BME280;20865;43.312;27.152;2023-03-26T09:46:04;99795.63;;;21.25;35.72
34658;BME280;20865;43.312;27.152;2023-03-26T09:55:40;99792.59;;;20.79;36.22
34658;BME280;20865;43.312;27.152;2023-03-26T10:03:19;99802.56;;;21.34;36.26
34658;BME280;20865;43.312;27.152;2023-03-26T10:05:56;99796.05;;;20.92;36.39
34658;BME280;20865;43.312;27.152;2023-03-26T10:08:27;99803.92;;;21.01;36.56
34658;BME280;20865;43.312;27.152;2023-03-26T10:10:55;99793.20;;;20.93;36.48
34658;BME280;20865;43.312;27.152;2023-03-26T10:16:15;99775.00;;;21.22;36.19
34658;BME280;20865;43.312;27.152;2023-03-26T10:21:33;99782.05;;;21.74;36.38
34658;BME280;20865;43.312;27.152;2023-03-26T10:26:37;99796.66;;;21.67;36.03
34658;BME280;20865;43.312;27.152;2023-03-26T10:29:19;99789.14;;;21.92;35.58
34658;BME280;20865;43.312;27.152;2023-03-26T10:37:09;99778.16;;;21.87;36.57
34658;BME280;20865;43.312;27.152;2023-03-26T10:39:41;99778.55;;;22.15;35.17
34658;BME280;20865;43.312;27.152;2023-03-26T10:47:25;99773.78;;;22.44;35.30
34658;BME280;20865;43.312;27.152;2023-03-26T10:50:00;99772.95;;;22.17;35.06
34658;BME280;20865;43.312;27.152;2023-03-26T10:52:27;99774.80;;;22.22;35.78
34658;BME280;20865;43.312;27.152;2023-03-26T10:54:54;99762.81;;;22.13;35.68
34658;BME280;20865;43.312;27.152;2023-03-26T10:59:50;99765.52;;;22.55;35.00
34658;BME280;20865;43.312;27.152;2023-03-26T11:02:20;99752.06;;;22.53;34.53
34658;BME280;20865;43.312;27.152;2023-03-26T11:10:05;99757.16;;;22.98;34.53
34658;BME280;20865;43.312;27.152;2023-03-26T11:20:36;99759.00;;;23.33;34.43
34658;BME280;20865;43.312;27.152;2023-03-26T11:25:55;99754.36;;;23.93;32.59
34658;BME280;20865;43.312;27.152;2023-03-26T11:30:55;99749.42;;;24.16;31.78
34658;BME280;20865;43.312;27.152;2023-03-26T11:33:23;99743.86;;;24.08;30.96
34658;BME280;20865;43.312;27.152;2023-03-26T11:35:51;99739.69;;;24.37;31.75
34658;BME280;20865;43.312;27.152;2023-03-26T11:38:20;99733.20;;;24.24;30.47
34658;BME280;20865;43.312;27.152;2023-03-26T11:40:48;99742.13;;;24.50;31.17
34658;BME280;20865;43.312;27.152;2023-03-26T11:43:21;99736.23;;;24.68;31.13
34658;BME280;20865;43.312;27.152;2023-03-26T11:45:44;99736.06;;;24.79;30.43
34658;BME280;20865;43.312;27.152;2023-03-26T11:50:43;99736.23;;;24.68;29.58
34658;BME280;20865;43.312;27.152;2023-03-26T11:53:11;99739.66;;;24.80;29.46
34658;BME280;20865;43.312;27.152;2023-03-26T11:55:39;99747.13;;;24.78;29.58
34658;BME280;20865;43.312;27.152;2023-03-26T11:58:07;99731.63;;;24.68;29.98
34658;BME280;20865;43.312;27.152;2023-03-26T12:00:35;99707.81;;;25.02;29.90
34658;BME280;20865;43.312;27.152;2023-03-26T12:03:01;99711.45;;;24.93;28.29
34658;BME280;20865;43.312;27.152;2023-03-26T12:05:28;99717.22;;;25.31;29.25
34658;BME280;20865;43.312;27.152;2023-03-26T12:07:57;99707.44;;;24.97;26.80
34658;BME280;20865;43.312;27.152;2023-03-26T12:10:29;99715.48;;;25.12;26.07
34658;BME280;20865;43.312;27.152;2023-03-26T12:13:02;99708.80;;;24.97;25.72
34658;BME280;20865;43.312;27.152;2023-03-26T12:15:24;99699.54;;;24.94;25.65
34658;BME280;20865;43.312;27.152;2023-03-26T12:17:53;99705.00;;;24.80;26.06
34658;BME280;20865;43.312;27.152;2023-03-26T12:22:56;99700.33;;;24.39;26.60
34658;BME280;20865;43.312;27.152;2023-03-26T12:25:30;99693.78;;;24.69;26.33
34658;BME280;20865;43.312;27.152;2023-03-26T12:28:08;99693.22;;;24.93;25.77
34658;BME280;20865;43.312;27.152;2023-03-26T12:30:33;99688.36;;;24.60;26.08
34658;BME280;20865;43.312;27.152;2023-03-26T12:33:00;99679.53;;;24.76;24.69
34658;BME280;20865;43.312;27.152;2023-03-26T12:35:31;99681.63;;;24.68;25.70
34658;BME280;20865;43.312;27.152;2023-03-26T12:40:44;99681.02;;;24.88;25.45
34658;BME280;20865;43.312;27.152;2023-03-26T12:43:19;99680.67;;;24.59;24.47
34658;BME280;20865;43.312;27.152;2023-03-26T12:45:43;99678.44;;;24.35;25.03
34658;BME280;20865;43.312;27.152;2023-03-26T12:48:11;99672.94;;;23.74;25.90
34658;BME280;20865;43.312;27.152;2023-03-26T12:50:50;99675.11;;;23.85;25.86
34658;BME280;20865;43.312;27.152;2023-03-26T12:53:18;99667.48;;;23.74;25.89
34658;BME280;20865;43.312;27.152;2023-03-26T12:55:53;99666.75;;;23.82;25.91
34658;BME280;20865;43.312;27.152;2023-03-26T13:01:03;99672.06;;;24.54;25.81
34658;BME280;20865;43.312;27.152;2023-03-26T13:08:58;99670.17;;;25.24;25.75
34658;BME280;20865;43.312;27.152;2023-03-26T13:16:35;99666.02;;;25.06;24.04
34658;BME280;20865;43.312;27.152;2023-03-26T13:19:05;99663.80;;;25.05;24.10
34658;BME280;20865;43.312;27.152;2023-03-26T13:24:20;99658.45;;;24.86;24.60
34658;BME280;20865;43.312;27.152;2023-03-26T13:29:55;99648.52;;;24.53;23.86
34658;BME280;20865;43.312;27.152;2023-03-26T13:31:58;99648.47;;;24.39;24.03
34658;BME280;20865;43.312;27.152;2023-03-26T13:39:36;99638.56;;;24.24;22.90
34658;BME280;20865;43.312;27.152;2023-03-26T13:47:04;99641.73;;;24.57;23.94
34658;BME280;20865;43.312;27.152;2023-03-26T13:49:42;99642.16;;;24.62;23.91
34658;BME280;20865;43.312;27.152;2023-03-26T13:52:22;99642.66;;;24.62;24.02
34658;BME280;20865;43.312;27.152;2023-03-26T13:57:36;99646.89;;;24.60;23.97
34658;BME280;20865;43.312;27.152;2023-03-26T14:02:42;99647.70;;;24.33;24.04
34658;BME280;20865;43.312;27.152;2023-03-26T14:05:12;99645.48;;;24.33;23.94
34658;BME280;20865;43.312;27.152;2023-03-26T14:07:43;99644.89;;;24.62;24.11
34658;BME280;20865;43.312;27.152;2023-03-26T14:12:42;99642.53;;;24.81;24.27
34658;BME280;20865;43.312;27.152;2023-03-26T14:15:13;99650.44;;;24.70;24.45
34658;BME280;20865;43.312;27.152;2023-03-26T14:17:47;99642.28;;;24.47;24.33
34658;BME280;20865;43.312;27.152;2023-03-26T14:20:21;99652.52;;;24.73;25.04
34658;BME280;20865;43.312;27.152;2023-03-26T14:25:37;99650.81;;;24.89;25.01
34658;BME280;20865;43.312;27.152;2023-03-26T14:30:53;99641.41;;;25.15;24.11
34658;BME280;20865;43.312;27.152;2023-03-26T14:38:31;99647.20;;;25.34;23.72
34658;BME280;20865;43.312;27.152;2023-03-26T14:41:04;99636.69;;;25.22;24.04
34658;BME280;20865;43.312;27.152;2023-03-26T14:46:09;99641.64;;;25.22;23.65
34658;BME280;20865;43.312;27.152;2023-03-26T14:53:45;99642.59;;;25.03;24.17
34658;BME280;20865;43.312;27.152;2023-03-26T15:14:42;99657.30;;;24.61;23.55
34658;BME280;20865;43.312;27.152;2023-03-26T15:19:55;99651.89;;;24.51;23.13
34658;BME280;20865;43.312;27.152;2023-03-26T15:22:25;99657.00;;;24.50;23.00
34658;BME280;20865;43.312;27.152;2023-03-26T15:25:11;99663.61;;;24.47;23.07
34658;BME280;20865;43.312;27.152;2023-03-26T15:30:20;99673.97;;;24.44;23.42
34658;BME280;20865;43.312;27.152;2023-03-26T15:43:13;99681.78;;;24.19;24.66
34658;BME280;20865;43.312;27.152;2023-03-26T15:45:51;99682.67;;;24.20;24.82
34658;BME280;20865;43.312;27.152;2023-03-26T15:48:22;99684.00;;;24.06;25.07
34658;BME280;20865;43.312;27.152;2023-03-26T15:50:50;99685.51;;;23.95;25.32
34658;BME280;20865;43.312;27.152;2023-03-26T15:58:42;99687.31;;;23.90;25.95
34658;BME280;20865;43.312;27.152;2023-03-26T16:03:53;99690.84;;;23.87;26.60
34658;BME280;20865;43.312;27.152;2023-03-26T16:06:29;99689.83;;;23.88;26.25
34658;BME280;20865;43.312;27.152;2023-03-26T16:12:35;99689.26;;;23.84;25.93
34658;BME280;20865;43.312;27.152;2023-03-26T16:14:14;99701.53;;;23.84;25.83
34658;BME280;20865;43.312;27.152;2023-03-26T16:16:55;99698.90;;;23.79;25.39
34658;BME280;20865;43.312;27.152;2023-03-26T16:22:14;99696.75;;;23.72;24.85
34658;BME280;20865;43.312;27.152;2023-03-26T16:24:45;99696.77;;;23.67;25.21
34658;BME280;20865;43.312;27.152;2023-03-26T16:32:27;99704.60;;;23.56;25.33
34658;BME280;20865;43.312;27.152;2023-03-26T16:37:43;99701.10;;;23.40;25.47
34658;BME280;20865;43.312;27.152;2023-03-26T16:43:02;99703.08;;;23.28;25.44
34658;BME280;20865;43.312;27.152;2023-03-26T16:48:08;99710.18;;;23.16;26.03
34658;BME280;20865;43.312;27.152;2023-03-26T16:55:50;99717.95;;;22.95;26.43
34658;BME280;20865;43.312;27.152;2023-03-26T17:01:07;99713.13;;;22.78;26.75
34658;BME280;20865;43.312;27.152;2023-03-26T17:06:29;99725.34;;;22.68;26.75
34658;BME280;20865;43.312;27.152;2023-03-26T17:11:38;99731.39;;;22.56;26.79
34658;BME280;20865;43.312;27.152;2023-03-26T17:16:35;99741.75;;;22.42;26.89
34658;BME280;20865;43.312;27.152;2023-03-26T17:19:09;99749.62;;;22.35;26.96
34658;BME280;20865;43.312;27.152;2023-03-26T17:36:12;99775.95;;;21.81;28.18
34658;BME280;20865;43.312;27.152;2023-03-26T17:37:48;99777.83;;;21.75;28.20
34658;BME280;20865;43.312;27.152;2023-03-26T17:40:28;99771.23;;;21.62;28.53